createdAt,value
2023-04-10T00:00:30.339Z,61.45
2023-04-10T00:01:30.314Z,61.43
2023-04-10T00:02:30.541Z,61.34
2023-04-10T00:03:30.449Z,61.29
2023-04-10T00:04:30.355Z,61.36
2023-04-10T00:05:30.276Z,61.29
2023-04-10T00:06:30.261Z,61.13
2023-04-10T00:07:30.253Z,61.15
2023-04-10T00:08:30.227Z,60.86
2023-04-10T00:09:30.231Z,60.88
2023-04-10T00:10:30.219Z,60.95
2023-04-10T00:11:30.198Z,60.84
2023-04-10T00:12:30.179Z,60.96
2023-04-10T00:13:30.165Z,61.04
2023-04-10T00:14:30.158Z,61.09
2023-04-10T00:15:30.174Z,61.08
2023-04-10T00:16:30.152Z,61.08
2023-04-10T00:17:30.169Z,60.95
2023-04-10T00:18:30.111Z,60.80
2023-04-10T00:19:30.085Z,60.70
2023-04-10T00:20:30.081Z,60.68
2023-04-10T00:21:30.067Z,60.74
2023-04-10T00:22:30.039Z,60.66
2023-04-10T00:23:30.069Z,60.85
2023-04-10T00:24:30.016Z,60.88
2023-04-10T00:25:30.014Z,60.83
2023-04-10T00:26:29.996Z,61.04
2023-04-10T00:27:30.006Z,60.50
2023-04-10T00:28:29.976Z,60.58
2023-04-10T00:29:29.970Z,60.70
2023-04-10T00:30:29.954Z,60.61
2023-04-10T00:31:29.951Z,60.47
2023-04-10T00:32:29.965Z,60.68
2023-04-10T00:33:29.942Z,60.70
2023-04-10T00:34:29.908Z,60.70
2023-04-10T00:35:29.910Z,60.65
2023-04-10T00:36:29.869Z,60.75
2023-04-10T00:37:29.865Z,60.84
2023-04-10T00:38:29.866Z,60.97
2023-04-10T00:39:29.855Z,61.10
2023-04-10T00:40:29.823Z,61.04
2023-04-10T00:41:29.844Z,60.55
2023-04-10T00:42:29.830Z,60.67
2023-04-10T00:43:29.822Z,60.65
2023-04-10T00:44:29.801Z,61.23
2023-04-10T00:45:29.758Z,61.32
2023-04-10T00:46:29.883Z,61.18
2023-04-10T00:47:29.750Z,61.16
2023-04-10T00:48:29.734Z,60.96
2023-04-10T00:49:29.713Z,61.19
2023-04-10T00:50:29.687Z,61.10
2023-04-10T00:51:29.689Z,60.95
2023-04-10T00:52:29.659Z,60.82
2023-04-10T00:53:29.661Z,60.70
2023-04-10T00:54:29.644Z,60.69
2023-04-10T00:55:29.625Z,60.60
2023-04-10T00:56:29.614Z,60.56
2023-04-10T00:57:29.600Z,60.58
2023-04-10T00:58:29.597Z,60.70
2023-04-10T00:59:29.587Z,60.70
2023-04-10T01:00:29.573Z,60.59
2023-04-10T01:01:29.632Z,60.57
2023-04-10T01:02:29.738Z,60.72
2023-04-10T01:03:29.680Z,60.61
2023-04-10T01:04:29.686Z,60.67
2023-04-10T01:05:29.523Z,60.71
2023-04-10T01:06:29.484Z,60.72
2023-04-10T01:07:29.516Z,60.59
2023-04-10T01:08:29.472Z,60.61
2023-04-10T01:09:29.470Z,60.67
2023-04-10T01:10:29.429Z,60.68
2023-04-10T01:11:29.448Z,60.63
2023-04-10T01:12:29.554Z,60.69
2023-04-10T01:13:29.420Z,60.68
2023-04-10T01:14:29.406Z,60.66
2023-04-10T01:15:29.380Z,60.67
2023-04-10T01:16:29.418Z,60.81
2023-04-10T01:17:29.384Z,60.87
2023-04-10T01:18:29.325Z,60.98
2023-04-10T01:19:29.336Z,60.97
2023-04-10T01:20:29.302Z,60.97
2023-04-10T01:21:29.286Z,60.97
2023-04-10T01:22:29.285Z,61.11
2023-04-10T01:23:29.292Z,61.22
2023-04-10T01:24:29.264Z,61.23
2023-04-10T01:25:29.244Z,61.32
2023-04-10T01:26:29.251Z,61.40
2023-04-10T01:27:29.221Z,61.52
2023-04-10T01:28:29.201Z,61.49
2023-04-10T01:29:29.227Z,61.63
2023-04-10T01:30:29.188Z,61.60
2023-04-10T01:31:29.177Z,61.45
2023-04-10T01:32:29.181Z,61.19
2023-04-10T01:33:29.172Z,61.32
2023-04-10T01:34:29.155Z,61.20
2023-04-10T01:35:29.194Z,61.11
2023-04-10T01:36:29.096Z,61.21
2023-04-10T01:37:29.092Z,61.15
2023-04-10T01:38:29.070Z,61.33
2023-04-10T01:39:29.119Z,61.42
2023-04-10T01:40:29.080Z,61.45
2023-04-10T01:41:29.050Z,61.34
2023-04-10T01:42:29.031Z,61.16
2023-04-10T01:43:29.041Z,61.15
2023-04-10T01:44:29.040Z,61.12
2023-04-10T01:45:29.056Z,61.18
2023-04-10T01:46:29.007Z,61.32
2023-04-10T01:47:29.049Z,61.40
2023-04-10T01:48:28.979Z,61.42
2023-04-10T01:49:28.950Z,61.69
2023-04-10T01:50:29.041Z,61.71
2023-04-10T01:51:28.944Z,61.73
2023-04-10T01:52:28.918Z,61.80
2023-04-10T01:53:28.910Z,61.96
2023-04-10T01:54:28.876Z,62.05
2023-04-10T01:55:28.876Z,62.07
2023-04-10T01:56:28.875Z,62.00
2023-04-10T01:57:28.837Z,61.88
2023-04-10T01:58:28.830Z,61.92
2023-04-10T01:59:28.808Z,62.05
2023-04-10T02:00:28.878Z,61.98
2023-04-10T02:01:30.438Z,62.07
2023-04-10T02:02:28.939Z,62.09
2023-04-10T02:03:29.072Z,62.20
2023-04-10T02:04:28.894Z,62.35
2023-04-10T02:05:28.756Z,62.47
2023-04-10T02:06:28.749Z,62.55
2023-04-10T02:07:28.713Z,62.62
2023-04-10T02:08:28.691Z,62.72
2023-04-10T02:09:28.702Z,62.84
2023-04-10T02:10:28.693Z,62.98
2023-04-10T02:11:28.670Z,63.10
2023-04-10T02:12:28.687Z,63.15
2023-04-10T02:13:28.628Z,63.16
2023-04-10T02:14:28.657Z,63.15
2023-04-10T02:15:28.646Z,63.12
2023-04-10T02:16:28.685Z,63.12
2023-04-10T02:17:28.626Z,63.05
2023-04-10T02:18:28.561Z,63.05
2023-04-10T02:19:28.608Z,63.13
2023-04-10T02:20:28.566Z,63.13
2023-04-10T02:21:28.598Z,63.32
2023-04-10T02:22:28.510Z,63.37
2023-04-10T02:23:28.547Z,63.30
2023-04-10T02:24:28.492Z,63.42
2023-04-10T02:25:28.472Z,63.41
2023-04-10T02:26:28.464Z,63.42
2023-04-10T02:27:28.510Z,63.43
2023-04-10T02:28:28.430Z,63.45
2023-04-10T02:29:28.452Z,63.45
2023-04-10T02:30:28.416Z,63.55
2023-04-10T02:31:28.441Z,63.42
2023-04-10T02:32:28.409Z,63.40
2023-04-10T02:33:28.369Z,63.46
2023-04-10T02:34:28.377Z,63.54
2023-04-10T02:35:28.355Z,63.36
2023-04-10T02:36:28.346Z,63.39
2023-04-10T02:37:28.337Z,63.53
2023-04-10T02:38:28.300Z,63.55
2023-04-10T02:39:28.299Z,63.62
2023-04-10T02:40:28.287Z,63.67
2023-04-10T02:41:28.264Z,63.55
2023-04-10T02:42:28.272Z,63.65
2023-04-10T02:43:28.258Z,63.64
2023-04-10T02:44:28.242Z,63.70
2023-04-10T02:45:28.202Z,63.66
2023-04-10T02:46:28.259Z,63.56
2023-04-10T02:47:28.285Z,63.69
2023-04-10T02:48:28.224Z,63.56
2023-04-10T02:49:28.175Z,63.51
2023-04-10T02:50:28.164Z,63.51
2023-04-10T02:51:28.137Z,63.49
2023-04-10T02:52:28.159Z,63.54
2023-04-10T02:53:28.130Z,63.51
2023-04-10T02:54:28.091Z,63.42
2023-04-10T02:55:28.097Z,63.47
2023-04-10T02:56:28.070Z,63.51
2023-04-10T02:57:28.062Z,63.44
2023-04-10T02:58:28.070Z,63.43
2023-04-10T02:59:28.082Z,63.36
2023-04-10T03:00:28.019Z,63.39
2023-04-10T03:01:28.028Z,63.31
2023-04-10T03:02:28.165Z,63.25
2023-04-10T03:03:28.053Z,63.22
2023-04-10T03:04:28.034Z,63.21
2023-04-10T03:05:27.950Z,63.27
2023-04-10T03:06:27.961Z,63.29
2023-04-10T03:07:27.942Z,63.37
2023-04-10T03:08:27.926Z,63.46
2023-04-10T03:09:27.914Z,63.28
2023-04-10T03:10:27.910Z,63.34
2023-04-10T03:11:27.873Z,63.40
2023-04-10T03:12:27.878Z,63.48
2023-04-10T03:13:27.869Z,63.58
2023-04-10T03:14:27.838Z,63.64
2023-04-10T03:15:27.820Z,63.55
2023-04-10T03:16:27.836Z,63.49
2023-04-10T03:17:27.819Z,63.56
2023-04-10T03:18:27.781Z,63.52
2023-04-10T03:19:27.756Z,63.34
2023-04-10T03:20:27.770Z,63.12
2023-04-10T03:21:27.758Z,63.28
2023-04-10T03:22:27.734Z,63.32
2023-04-10T03:23:27.744Z,63.49
2023-04-10T03:24:27.730Z,63.42
2023-04-10T03:25:27.709Z,63.53
2023-04-10T03:26:27.700Z,63.65
2023-04-10T03:27:27.694Z,63.72
2023-04-10T03:28:27.671Z,63.64
2023-04-10T03:29:27.643Z,63.57
2023-04-10T03:30:27.622Z,63.70
2023-04-10T03:31:27.657Z,63.84
2023-04-10T03:32:27.606Z,63.81
2023-04-10T03:33:27.621Z,63.88
2023-04-10T03:34:27.569Z,63.94
2023-04-10T03:35:27.579Z,64.04
2023-04-10T03:36:27.591Z,64.05
2023-04-10T03:37:27.525Z,64.17
2023-04-10T03:38:27.539Z,64.12
2023-04-10T03:39:27.510Z,64.07
2023-04-10T03:40:27.494Z,64.12
2023-04-10T03:41:34.014Z,64.12
2023-04-10T03:42:27.464Z,64.04
2023-04-10T03:43:27.466Z,64.03
2023-04-10T03:44:27.440Z,63.95
2023-04-10T03:45:27.415Z,63.94
2023-04-10T03:46:27.457Z,63.88
2023-04-10T03:47:27.454Z,63.95
2023-04-10T03:48:27.394Z,63.86
2023-04-10T03:49:27.380Z,63.85
2023-04-10T03:50:27.359Z,63.88
2023-04-10T03:51:27.369Z,63.91
2023-04-10T03:52:27.334Z,63.87
2023-04-10T03:53:27.317Z,63.85
2023-04-10T03:54:27.342Z,63.89
2023-04-10T03:55:27.279Z,63.97
2023-04-10T03:56:27.311Z,63.94
2023-04-10T03:57:27.261Z,63.97
2023-04-10T03:58:27.277Z,63.94
2023-04-10T03:59:37.935Z,64.02
2023-04-10T04:00:27.241Z,63.98
2023-04-10T04:01:27.274Z,63.89
2023-04-10T04:02:27.343Z,63.76
2023-04-10T04:03:27.348Z,63.80
2023-04-10T04:04:27.329Z,63.87
2023-04-10T04:05:27.195Z,63.89
2023-04-10T04:06:27.152Z,63.82
2023-04-10T04:07:27.159Z,63.84
2023-04-10T04:08:27.123Z,63.90
2023-04-10T04:09:27.106Z,63.99
2023-04-10T04:10:27.098Z,64.00
2023-04-10T04:11:27.064Z,64.10
2023-04-10T04:12:27.058Z,64.11
2023-04-10T04:13:27.088Z,63.96
2023-04-10T04:14:27.053Z,63.95
2023-04-10T04:15:27.031Z,64.16
2023-04-10T04:16:27.025Z,64.10
2023-04-10T04:17:27.052Z,64.12
2023-04-10T04:18:26.989Z,64.16
2023-04-10T04:19:26.979Z,64.28
2023-04-10T04:20:26.983Z,64.28
2023-04-10T04:21:27.002Z,64.32
2023-04-10T04:22:26.943Z,64.43
2023-04-10T04:23:26.968Z,64.48
2023-04-10T04:24:26.916Z,64.43
2023-04-10T04:25:26.906Z,64.53
2023-04-10T04:26:26.900Z,64.50
2023-04-10T04:27:26.886Z,64.52
2023-04-10T04:28:28.377Z,64.61
2023-04-10T04:29:26.874Z,64.71
2023-04-10T04:30:26.849Z,64.65
2023-04-10T04:31:26.828Z,64.62
2023-04-10T04:32:26.839Z,64.62
2023-04-10T04:33:26.825Z,64.66
2023-04-10T04:34:26.827Z,64.77
2023-04-10T04:35:26.778Z,64.84
2023-04-10T04:36:26.762Z,64.84
2023-04-10T04:37:26.768Z,64.84
2023-04-10T04:38:26.766Z,64.87
2023-04-10T04:39:26.751Z,64.96
2023-04-10T04:40:26.751Z,64.80
2023-04-10T04:41:26.723Z,64.84
2023-04-10T04:42:26.689Z,64.85
2023-04-10T04:43:26.706Z,64.82
2023-04-10T04:44:26.674Z,64.78
2023-04-10T04:45:26.646Z,64.77
2023-04-10T04:46:26.657Z,64.89
2023-04-10T04:47:26.658Z,64.91
2023-04-10T04:48:26.615Z,64.97
2023-04-10T04:49:26.600Z,64.83
2023-04-10T04:50:26.581Z,64.88
2023-04-10T04:51:26.605Z,65.16
2023-04-10T04:52:26.575Z,65.24
2023-04-10T04:53:26.552Z,65.30
2023-04-10T04:54:26.563Z,65.22
2023-04-10T04:55:26.527Z,65.30
2023-04-10T04:56:26.526Z,65.29
2023-04-10T04:57:26.506Z,65.36
2023-04-10T04:58:26.497Z,65.31
2023-04-10T04:59:26.487Z,65.47
2023-04-10T05:00:26.506Z,65.46
2023-04-10T05:01:26.495Z,65.50
2023-04-10T05:02:26.629Z,65.62
2023-04-10T05:03:26.583Z,65.84
2023-04-10T05:04:26.496Z,65.87
2023-04-10T05:05:26.404Z,65.86
2023-04-10T05:06:26.405Z,65.84
2023-04-10T05:07:26.372Z,65.88
2023-04-10T05:08:26.403Z,65.89
2023-04-10T05:09:26.355Z,65.86
2023-04-10T05:10:26.343Z,65.92
2023-04-10T05:11:26.345Z,65.94
2023-04-10T05:12:26.322Z,65.96
2023-04-10T05:13:26.343Z,66.00
2023-04-10T05:14:26.332Z,66.02
2023-04-10T05:15:26.500Z,66.08
2023-04-10T05:16:26.255Z,66.11
2023-04-10T05:17:26.305Z,66.05
2023-04-10T05:18:26.305Z,66.00
2023-04-10T05:19:26.217Z,66.07
2023-04-10T05:20:26.216Z,65.96
2023-04-10T05:21:26.224Z,66.09
2023-04-10T05:22:26.194Z,66.03
2023-04-10T05:23:26.180Z,66.02
2023-04-10T05:24:26.177Z,66.09
2023-04-10T05:25:26.145Z,65.96
2023-04-10T05:26:26.144Z,65.97
2023-04-10T05:27:26.130Z,65.95
2023-04-10T05:28:26.111Z,65.93
2023-04-10T05:29:26.112Z,66.11
2023-04-10T05:30:26.089Z,66.12
2023-04-10T05:31:26.170Z,66.18
2023-04-10T05:32:26.116Z,66.17
2023-04-10T05:33:26.093Z,66.12
2023-04-10T05:34:26.070Z,66.09
2023-04-10T05:35:26.048Z,66.08
2023-04-10T05:36:26.037Z,66.13
2023-04-10T05:37:26.006Z,66.09
2023-04-10T05:38:25.996Z,66.05
2023-04-10T05:39:25.971Z,65.99
2023-04-10T05:40:26.001Z,66.01
2023-04-10T05:41:26.003Z,65.96
2023-04-10T05:42:25.954Z,65.93
2023-04-10T05:43:25.930Z,66.06
2023-04-10T05:44:25.927Z,66.14
2023-04-10T05:45:25.934Z,66.06
2023-04-10T05:46:25.917Z,66.03
2023-04-10T05:47:25.978Z,66.09
2023-04-10T05:48:25.885Z,66.16
2023-04-10T05:49:25.869Z,66.25
2023-04-10T05:50:25.888Z,66.23
2023-04-10T05:51:25.826Z,66.27
2023-04-10T05:52:25.854Z,66.28
2023-04-10T05:53:25.830Z,66.38
2023-04-10T05:54:25.822Z,66.34
2023-04-10T05:55:25.771Z,66.35
2023-04-10T05:56:25.810Z,66.46
2023-04-10T05:57:25.810Z,66.59
2023-04-10T05:58:25.785Z,66.91
2023-04-10T05:59:25.740Z,66.85
2023-04-10T06:00:25.713Z,66.91
2023-04-10T06:01:25.701Z,66.71
2023-04-10T06:02:25.866Z,66.63
2023-04-10T06:03:25.779Z,66.38
2023-04-10T06:04:25.829Z,66.26
2023-04-10T06:05:25.743Z,66.21
2023-04-10T06:06:25.665Z,66.16
2023-04-10T06:07:25.672Z,66.30
2023-04-10T06:08:25.638Z,66.53
2023-04-10T06:09:25.593Z,66.52
2023-04-10T06:10:25.613Z,66.36
2023-04-10T06:11:25.586Z,66.15
2023-04-10T06:12:25.576Z,66.18
2023-04-10T06:13:25.549Z,66.28
2023-04-10T06:14:25.529Z,66.10
2023-04-10T06:15:25.507Z,66.19
2023-04-10T06:16:25.750Z,66.26
2023-04-10T06:17:25.544Z,66.36
2023-04-10T06:18:25.490Z,66.31
2023-04-10T06:19:25.465Z,66.12
2023-04-10T06:20:25.453Z,65.85
2023-04-10T06:21:25.473Z,65.86
2023-04-10T06:22:25.434Z,66.00
2023-04-10T06:23:25.413Z,65.70
2023-04-10T06:24:25.434Z,65.64
2023-04-10T06:25:25.406Z,65.66
2023-04-10T06:26:25.385Z,65.71
2023-04-10T06:27:25.390Z,65.68
2023-04-10T06:28:25.436Z,65.75
2023-04-10T06:29:25.348Z,65.86
2023-04-10T06:30:25.326Z,65.80
2023-04-10T06:31:25.357Z,65.88
2023-04-10T06:32:25.355Z,66.05
2023-04-10T06:33:26.401Z,65.90
2023-04-10T06:34:25.282Z,65.89
2023-04-10T06:35:25.271Z,65.80
2023-04-10T06:36:25.264Z,65.62
2023-04-10T06:37:25.263Z,65.45
2023-04-10T06:38:25.261Z,65.30
2023-04-10T06:39:25.223Z,65.39
2023-04-10T06:40:25.200Z,65.36
2023-04-10T06:41:25.178Z,65.36
2023-04-10T06:42:25.182Z,65.34
2023-04-10T06:43:25.171Z,65.34
2023-04-10T06:44:25.142Z,65.45
2023-04-10T06:45:25.125Z,65.39
2023-04-10T06:46:25.152Z,65.27
2023-04-10T06:47:25.128Z,65.29
2023-04-10T06:48:25.134Z,65.35
2023-04-10T06:49:25.389Z,65.43
2023-04-10T06:50:25.058Z,65.47
2023-04-10T06:51:25.043Z,65.41
2023-04-10T06:52:25.087Z,65.47
2023-04-10T06:53:25.031Z,65.23
2023-04-10T06:54:25.026Z,64.98
2023-04-10T06:55:25.032Z,65.02
2023-04-10T06:56:25.078Z,64.98
2023-04-10T06:57:24.990Z,65.18
2023-04-10T06:58:24.952Z,65.87
2023-04-10T06:59:24.955Z,66.51
2023-04-10T07:00:24.935Z,66.30
2023-04-10T07:01:26.079Z,65.76
2023-04-10T07:02:25.349Z,65.18
2023-04-10T07:03:24.899Z,65.07
2023-04-10T07:04:24.934Z,65.23
2023-04-10T07:05:24.874Z,65.21
2023-04-10T07:06:24.883Z,65.09
2023-04-10T07:07:24.856Z,64.94
2023-04-10T07:08:24.879Z,64.93
2023-04-10T07:09:24.822Z,64.91
2023-04-10T07:10:24.813Z,64.77
2023-04-10T07:11:24.810Z,64.48
2023-04-10T07:12:24.808Z,64.45
2023-04-10T07:13:24.761Z,64.52
2023-04-10T07:14:24.759Z,64.68
2023-04-10T07:15:24.770Z,64.55
2023-04-10T07:16:24.754Z,64.59
2023-04-10T07:17:24.767Z,64.48
2023-04-10T07:18:24.716Z,64.47
2023-04-10T07:19:24.711Z,64.50
2023-04-10T07:20:24.707Z,64.43
2023-04-10T07:21:24.675Z,64.20
2023-04-10T07:22:24.717Z,64.13
2023-04-10T07:23:24.656Z,64.19
2023-04-10T07:24:24.651Z,64.21
2023-04-10T07:25:24.639Z,64.22
2023-04-10T07:26:24.612Z,64.16
2023-04-10T07:27:24.597Z,64.03
2023-04-10T07:28:24.614Z,63.59
2023-04-10T07:29:24.558Z,63.50
2023-04-10T07:30:24.571Z,63.54
2023-04-10T07:31:33.050Z,63.36
2023-04-10T07:32:24.766Z,63.40
2023-04-10T07:33:24.547Z,63.59
2023-04-10T07:34:24.494Z,63.65
2023-04-10T07:35:24.498Z,63.45
2023-04-10T07:36:24.490Z,63.58
2023-04-10T07:37:24.456Z,63.20
2023-04-10T07:38:24.496Z,63.12
2023-04-10T07:39:24.447Z,62.74
2023-04-10T07:40:24.431Z,62.79
2023-04-10T07:41:24.452Z,63.13
2023-04-10T07:42:24.409Z,63.14
2023-04-10T07:43:24.387Z,63.28
2023-04-10T07:44:24.399Z,63.52
2023-04-10T07:45:24.453Z,63.41
2023-04-10T07:46:24.390Z,63.25
2023-04-10T07:47:24.503Z,63.20
2023-04-10T07:48:24.336Z,63.11
2023-04-10T07:49:24.341Z,63.14
2023-04-10T07:50:24.323Z,62.99
2023-04-10T07:51:24.295Z,63.16
2023-04-10T07:52:24.269Z,63.01
2023-04-10T07:53:24.272Z,63.00
2023-04-10T07:54:24.293Z,63.03
2023-04-10T07:55:24.284Z,63.17
2023-04-10T07:56:24.235Z,63.18
2023-04-10T07:57:24.215Z,63.08
2023-04-10T07:58:24.200Z,63.02
2023-04-10T07:59:24.227Z,62.95
2023-04-10T08:00:24.207Z,63.00
2023-04-10T08:01:24.150Z,62.93
2023-04-10T08:02:24.327Z,62.77
2023-04-10T08:03:24.281Z,62.63
2023-04-10T08:04:24.321Z,62.52
2023-04-10T08:05:24.246Z,62.29
2023-04-10T08:06:24.088Z,62.20
2023-04-10T08:07:24.096Z,62.25
2023-04-10T08:08:24.065Z,62.20
2023-04-10T08:09:24.060Z,61.71
2023-04-10T08:10:24.065Z,61.56
2023-04-10T08:11:24.043Z,61.53
2023-04-10T08:12:24.019Z,61.57
2023-04-10T08:13:24.006Z,61.57
2023-04-10T08:14:24.010Z,61.61
2023-04-10T08:15:24.020Z,61.75
2023-04-10T08:16:24.043Z,61.51
2023-04-10T08:17:24.006Z,61.26
2023-04-10T08:18:23.928Z,61.09
2023-04-10T08:19:23.937Z,60.99
2023-04-10T08:20:23.946Z,61.06
2023-04-10T08:21:23.897Z,61.18
2023-04-10T08:22:23.882Z,61.13
2023-04-10T08:23:23.875Z,60.76
2023-04-10T08:24:23.853Z,60.30
2023-04-10T08:25:23.874Z,60.26
2023-04-10T08:26:23.844Z,60.45
2023-04-10T08:27:23.846Z,60.52
2023-04-10T08:28:23.830Z,60.21
2023-04-10T08:30:23.929Z,60.07
2023-04-10T08:31:23.938Z,59.70
2023-04-10T08:32:23.782Z,59.78
2023-04-10T08:33:23.753Z,59.62
2023-04-10T08:34:23.732Z,59.30
2023-04-10T08:35:23.725Z,59.39
2023-04-10T08:36:23.735Z,59.37
2023-04-10T08:37:23.713Z,59.40
2023-04-10T08:38:23.689Z,59.08
2023-04-10T08:39:23.695Z,58.81
2023-04-10T08:40:23.700Z,58.62
2023-04-10T08:41:23.674Z,58.63
2023-04-10T08:42:23.640Z,58.73
2023-04-10T08:43:23.642Z,58.30
2023-04-10T08:44:23.604Z,58.29
2023-04-10T08:45:23.611Z,58.48
2023-04-10T08:46:23.602Z,58.72
2023-04-10T08:47:23.622Z,58.50
2023-04-10T08:48:23.590Z,58.68
2023-04-10T08:49:23.546Z,58.83
2023-04-10T08:50:23.553Z,59.14
2023-04-10T08:51:26.223Z,59.35
2023-04-10T08:52:23.507Z,58.66
2023-04-10T08:53:23.503Z,58.37
2023-04-10T08:54:23.517Z,58.79
2023-04-10T08:55:23.479Z,59.00
2023-04-10T08:56:23.473Z,58.97
2023-04-10T08:57:23.445Z,59.02
2023-04-10T08:58:23.526Z,59.05
2023-04-10T08:59:23.429Z,59.03
2023-04-10T09:00:23.846Z,58.73
2023-04-10T09:01:23.471Z,58.37
2023-04-10T09:02:23.505Z,58.42
2023-04-10T09:03:23.526Z,58.19
2023-04-10T09:04:23.470Z,57.80
2023-04-10T09:05:23.351Z,57.54
2023-04-10T09:06:23.356Z,57.84
2023-04-10T09:07:23.322Z,57.92
2023-04-10T09:08:23.467Z,57.94
2023-04-10T09:09:23.311Z,57.81
2023-04-10T09:10:23.323Z,57.34
2023-04-10T09:11:23.311Z,57.54
2023-04-10T09:12:23.271Z,57.74
2023-04-10T09:13:23.259Z,57.60
2023-04-10T09:14:23.242Z,57.27
2023-04-10T09:15:23.257Z,56.65
2023-04-10T09:16:23.286Z,56.77
2023-04-10T09:17:23.303Z,57.00
2023-04-10T09:18:23.253Z,57.02
2023-04-10T09:19:23.266Z,57.15
2023-04-10T09:20:23.240Z,57.53
2023-04-10T09:21:23.207Z,57.25
2023-04-10T09:22:23.378Z,57.20
2023-04-10T09:23:23.146Z,57.14
2023-04-10T09:24:23.135Z,56.78
2023-04-10T09:25:23.118Z,56.79
2023-04-10T09:26:23.098Z,56.76
2023-04-10T09:27:23.103Z,56.41
2023-04-10T09:28:23.064Z,56.28
2023-04-10T09:29:23.067Z,56.20
2023-04-10T09:30:23.066Z,56.11
2023-04-10T09:31:23.220Z,55.49
2023-04-10T09:32:23.063Z,55.55
2023-04-10T09:33:22.995Z,55.61
2023-04-10T09:34:23.005Z,55.72
2023-04-10T09:35:22.966Z,55.58
2023-04-10T09:36:22.993Z,55.65
2023-04-10T09:37:22.987Z,55.28
2023-04-10T09:38:22.966Z,55.27
2023-04-10T09:39:22.949Z,54.78
2023-04-10T09:40:22.920Z,54.76
2023-04-10T09:41:22.918Z,54.51
2023-04-10T09:42:22.904Z,54.90
2023-04-10T09:43:22.905Z,55.32
2023-04-10T09:44:22.856Z,55.26
2023-04-10T09:45:22.958Z,55.01
2023-04-10T09:46:22.863Z,55.21
2023-04-10T09:47:22.878Z,55.15
2023-04-10T09:48:22.823Z,55.32
2023-04-10T09:49:22.789Z,55.00
2023-04-10T09:50:22.794Z,54.71
2023-04-10T09:51:22.786Z,54.96
2023-04-10T09:52:22.789Z,55.03
2023-04-10T09:53:22.732Z,55.27
2023-04-10T09:54:22.726Z,55.34
2023-04-10T09:55:22.715Z,55.41
2023-04-10T09:56:22.734Z,55.15
2023-04-10T09:57:22.704Z,55.26
2023-04-10T09:58:22.702Z,55.63
2023-04-10T09:59:22.679Z,55.19
2023-04-10T10:00:22.673Z,54.89
2023-04-10T10:01:22.784Z,54.65
2023-04-10T10:02:22.763Z,54.32
2023-04-10T10:03:22.790Z,54.54
2023-04-10T10:04:22.640Z,54.32
2023-04-10T10:05:22.615Z,54.53
2023-04-10T10:06:22.571Z,54.73
2023-04-10T10:07:22.610Z,54.61
2023-04-10T10:08:22.588Z,54.76
2023-04-10T10:09:22.630Z,54.20
2023-04-10T10:10:22.529Z,54.30
2023-04-10T10:11:22.530Z,53.93
2023-04-10T10:12:22.511Z,53.94
2023-04-10T10:13:22.539Z,53.93
2023-04-10T10:14:22.488Z,53.85
2023-04-10T10:15:22.511Z,53.83
2023-04-10T10:16:23.094Z,53.82
2023-04-10T10:17:22.492Z,53.49
2023-04-10T10:18:22.433Z,53.39
2023-04-10T10:19:22.417Z,53.32
2023-04-10T10:20:22.420Z,53.87
2023-04-10T10:21:22.377Z,53.90
2023-04-10T10:22:22.371Z,53.92
2023-04-10T10:23:22.388Z,52.52
2023-04-10T10:24:22.364Z,52.54
2023-04-10T10:25:22.361Z,52.48
2023-04-10T10:26:22.334Z,52.34
2023-04-10T10:27:22.310Z,52.09
2023-04-10T10:28:22.329Z,51.95
2023-04-10T10:29:22.309Z,52.03
2023-04-10T10:30:30.239Z,52.37
2023-04-10T10:31:22.473Z,51.90
2023-04-10T10:32:22.286Z,52.18
2023-04-10T10:33:22.273Z,52.85
2023-04-10T10:34:22.251Z,52.78
2023-04-10T10:35:23.020Z,52.71
2023-04-10T10:36:22.265Z,52.47
2023-04-10T10:37:22.197Z,52.50
2023-04-10T10:38:22.201Z,52.46
2023-04-10T10:39:22.182Z,52.28
2023-04-10T10:40:22.189Z,51.82
2023-04-10T10:41:22.211Z,52.07
2023-04-10T10:42:22.149Z,51.88
2023-04-10T10:43:22.123Z,51.97
2023-04-10T10:44:22.121Z,51.59
2023-04-10T10:45:22.132Z,51.60
2023-04-10T10:46:22.198Z,51.36
2023-04-10T10:47:22.134Z,51.00
2023-04-10T10:48:22.062Z,50.92
2023-04-10T10:49:22.092Z,51.08
2023-04-10T10:50:23.465Z,50.99
2023-04-10T10:51:22.056Z,50.38
2023-04-10T10:52:22.018Z,50.11
2023-04-10T10:53:22.017Z,49.58
2023-04-10T10:54:21.999Z,50.29
2023-04-10T10:55:22.038Z,50.48
2023-04-10T10:56:22.062Z,50.87
2023-04-10T10:57:21.963Z,50.98
2023-04-10T10:58:21.944Z,50.66
2023-04-10T10:59:21.958Z,49.93
2023-04-10T11:00:21.937Z,50.47
2023-04-10T11:01:21.956Z,50.84
2023-04-10T11:02:21.979Z,50.10
2023-04-10T11:03:22.137Z,50.16
2023-04-10T11:04:21.874Z,50.24
2023-04-10T11:05:21.864Z,50.84
2023-04-10T11:06:22.110Z,50.19
2023-04-10T11:07:21.832Z,50.16
2023-04-10T11:08:21.881Z,50.14
2023-04-10T11:09:21.829Z,50.53
2023-04-10T11:10:21.815Z,50.06
2023-04-10T11:11:21.828Z,50.09
2023-04-10T11:12:21.786Z,48.84
2023-04-10T11:13:21.774Z,48.33
2023-04-10T11:14:21.742Z,48.53
2023-04-10T11:15:21.766Z,48.83
2023-04-10T11:16:21.826Z,48.76
2023-04-10T11:17:21.745Z,48.49
2023-04-10T11:18:21.717Z,47.80
2023-04-10T11:19:23.327Z,47.56
2023-04-10T11:20:21.716Z,47.01
2023-04-10T11:21:21.697Z,44.64
2023-04-10T11:22:21.709Z,42.57
2023-04-10T11:23:21.669Z,42.73
2023-04-10T11:24:21.675Z,41.50
2023-04-10T11:25:21.681Z,42.45
2023-04-10T11:26:21.688Z,42.25
2023-04-10T11:27:21.621Z,42.16
2023-04-10T11:28:21.589Z,41.97
2023-04-10T11:29:21.591Z,39.85
2023-04-10T11:30:21.654Z,39.85
2023-04-10T11:31:21.617Z,40.54
2023-04-10T11:32:21.582Z,40.99
2023-04-10T11:33:21.519Z,41.33
2023-04-10T11:34:21.517Z,40.98
2023-04-10T11:35:21.577Z,40.86
2023-04-10T11:36:21.502Z,41.63
2023-04-10T11:37:21.520Z,42.57
2023-04-10T11:38:21.501Z,42.81
2023-04-10T11:39:21.463Z,43.28
2023-04-10T11:40:21.453Z,43.58
2023-04-10T11:41:21.422Z,43.12
2023-04-10T11:42:21.469Z,43.32
2023-04-10T11:43:21.393Z,43.34
2023-04-10T11:44:21.384Z,43.37
2023-04-10T11:45:21.422Z,43.73
2023-04-10T11:46:21.423Z,43.15
2023-04-10T11:47:21.402Z,42.23
2023-04-10T11:48:21.333Z,42.94
2023-04-10T11:49:21.347Z,43.28
2023-04-10T11:50:21.352Z,43.97
2023-04-10T11:51:21.921Z,43.86
2023-04-10T11:52:21.306Z,43.89
2023-04-10T11:53:21.280Z,43.69
2023-04-10T11:54:21.312Z,43.83
2023-04-10T11:55:21.313Z,44.08
2023-04-10T11:56:21.317Z,43.69
2023-04-10T11:57:21.228Z,43.51
2023-04-10T11:58:21.253Z,43.50
2023-04-10T11:59:21.212Z,43.54
2023-04-10T12:00:21.220Z,43.24
2023-04-10T12:01:27.771Z,42.44
2023-04-10T12:02:21.412Z,42.70
2023-04-10T12:03:22.245Z,42.65
2023-04-10T12:04:21.358Z,42.61
2023-04-10T12:05:21.138Z,43.47
2023-04-10T12:06:21.140Z,42.68
2023-04-10T12:07:21.100Z,42.47
2023-04-10T12:08:21.129Z,42.82
2023-04-10T12:09:21.120Z,43.53
2023-04-10T12:10:21.087Z,44.63
2023-04-10T12:11:21.055Z,44.65
2023-04-10T12:12:21.029Z,44.33
2023-04-10T12:13:21.050Z,44.14
2023-04-10T12:14:21.030Z,43.93
2023-04-10T12:15:21.186Z,43.90
2023-04-10T12:16:21.039Z,43.60
2023-04-10T12:17:21.013Z,43.80
2023-04-10T12:18:20.979Z,43.39
2023-04-10T12:19:20.956Z,43.32
2023-04-10T12:20:20.919Z,43.51
2023-04-10T12:22:42.094Z,42.81
2023-04-10T12:23:43.046Z,42.89
2023-04-10T12:24:43.009Z,42.88
2023-04-10T12:25:57.115Z,42.57
2023-04-10T12:26:43.154Z,41.94
2023-04-10T12:27:43.004Z,41.90
2023-04-10T12:28:43.024Z,41.52
2023-04-10T12:29:42.809Z,46.42
2023-04-10T12:30:42.804Z,49.22
2023-04-10T12:31:43.030Z,50.88
2023-04-10T12:32:42.913Z,49.92
2023-04-10T12:33:42.773Z,49.91
2023-04-10T12:34:42.784Z,50.21
2023-04-10T12:35:42.883Z,51.50
2023-04-10T12:36:42.723Z,50.80
2023-04-10T12:37:42.701Z,49.05
2023-04-10T12:38:43.533Z,51.83
2023-04-10T12:39:42.694Z,49.62
2023-04-10T12:40:42.697Z,49.46
2023-04-10T12:41:42.701Z,49.75
2023-04-10T12:42:42.700Z,49.40
2023-04-10T12:43:42.641Z,46.83
2023-04-10T12:44:42.669Z,46.52
2023-04-10T12:45:42.678Z,47.14
2023-04-10T12:46:42.737Z,47.17
2023-04-10T12:47:42.805Z,46.43
2023-04-10T12:48:42.593Z,45.51
2023-04-10T12:49:42.581Z,45.56
2023-04-10T12:50:42.572Z,46.89
2023-04-10T12:51:42.549Z,46.90
2023-04-10T12:52:42.531Z,44.97
2023-04-10T12:53:42.540Z,43.96
2023-04-10T12:54:42.507Z,44.24